Mekoryuk Airport
PAMY : rendu visible

Aérodrome :











RETROUVEZ-NOUS SUR...

 
LOGIN :

S'inscrire | Disclaimer

   EN    FR    IT 

 









Légende :    VFR   VFR Marginal   IFR   IFR Intensif   IFR Très Intensif
Visi : 
Plafond : 
>= 8 km
>= 3000ft
5 à 8 km
1000 à 3000 ft
1500m à 5 km
500 à 1000 ft
800 à 1500m
200 à 500 ft
< 800m
< 200 ft
Symboles :   Orages  Brouillard  Fortes neiges  Fortes précipitations  Vent > 20 kt






- Altitude de l'aérodrome : 48 ft
- Code IATA : MYU


PAMY - Mekoryuk

DERNIER METAR :
  • 271056Z AUTO 05004KT 10SM CLR M18/M19 A2979 RMK AO2 SLP089 T11781194 FZRANO

METARs EXPIRÉS :
  • 270956Z AUTO VRB04KT 10SM CLR M17/M18 A2979 RMK AO2 SLP089 T11671183 FZRANO
  • 270856Z AUTO 06013KT 10SM CLR M16/M17 A2977 RMK AO2 SLP083 T11561172 411001172 51008 FZRANO

TAF N/A



MET'MAP, la Météo Aéronautique d'un coup d'oeil ! - Copyright ORBIFLY Décembre 2007 - Disclaimer

ORBIFLY MET'MAP TEAM :

Programmation & Développement : Alexandra Zaïnal
Sur une idée originale de : Baudouin d'Aumeries
Assistance à la programmation : Marc-Olivier Méhu
Soutien technique & logistique : Manuel Goepfert

Contact : metmap@orbifly.com




SOURCES & CREDITS :

   NOAA       Earth
Advisory